createdAt,value
2023-02-27T00:00:23.696Z,100120.13
2023-02-27T00:02:54.273Z,100114.22
2023-02-27T00:05:26.081Z,100197.44
2023-02-27T00:07:57.639Z,100181.03
2023-02-27T00:10:26.838Z,100198.47
2023-02-27T00:12:53.964Z,100076.31
2023-02-27T00:15:23.484Z,100288.47
2023-02-27T00:17:51.029Z,100194.56
2023-02-27T00:20:19.864Z,100341.56
2023-02-27T00:22:46.946Z,100244.28
2023-02-27T00:25:14.683Z,100034.66
2023-02-27T00:27:46.495Z,100350.97
2023-02-27T00:30:16.058Z,100138.78
2023-02-27T00:32:42.749Z,100356.09
2023-02-27T00:35:11.350Z,100358.13
2023-02-27T00:37:38.680Z,100147.47
2023-02-27T00:40:08.484Z,100369.03
2023-02-27T00:42:35.678Z,100363.34
2023-02-27T00:45:06.595Z,100091.78
2023-02-27T00:47:37.211Z,100364.59
2023-02-27T00:50:07.774Z,100152.38
2023-02-27T00:52:36.919Z,100314.16
2023-02-27T00:55:06.966Z,100367.19
2023-02-27T00:57:33.756Z,100419.16
2023-02-27T01:00:02.785Z,100294.66
2023-02-27T01:02:29.876Z,100402.47
2023-02-27T01:04:59.012Z,100100.38
2023-02-27T01:07:25.832Z,100315.53
2023-02-27T01:09:53.475Z,100155.38
2023-02-27T01:12:23.247Z,100042.03
2023-02-27T01:14:50.263Z,100406.59
2023-02-27T01:17:17.506Z,100291.31
2023-02-27T01:19:46.849Z,100401.19
2023-02-27T01:22:14.026Z,100394.66
2023-02-27T01:24:43.726Z,100396.16
2023-02-27T01:27:10.577Z,100173.72
2023-02-27T01:29:37.336Z,100399.50
2023-02-27T01:32:04.398Z,100242.38
2023-02-27T01:34:34.391Z,100277.63
2023-02-27T01:37:02.469Z,100263.34
2023-02-27T01:39:29.450Z,100212.25
2023-02-27T01:41:58.905Z,100229.25
2023-02-27T01:44:30.141Z,100330.28
2023-02-27T01:47:00.317Z,100253.75
2023-02-27T01:49:33.737Z,100398.38
2023-02-27T01:52:06.185Z,100242.56
2023-02-27T01:54:36.554Z,100158.31
2023-02-27T01:57:10.168Z,100317.78
2023-02-27T01:59:40.675Z,100397.94
2023-02-27T02:02:17.558Z,100397.94
2023-02-27T02:04:49.908Z,100402.84
2023-02-27T02:07:18.275Z,100411.31
2023-02-27T02:09:57.264Z,100279.78
2023-02-27T02:12:29.297Z,100408.19
2023-02-27T02:14:56.084Z,100423.03
2023-02-27T02:18:01.681Z,100416.53
2023-02-27T02:20:58.804Z,100378.78
2023-02-27T02:24:11.922Z,100434.25
2023-02-27T02:26:44.801Z,100436.50
2023-02-27T02:29:15.561Z,100441.34
2023-02-27T02:31:42.324Z,100447.47
2023-02-27T02:34:53.435Z,100446.75
2023-02-27T02:37:31.117Z,100430.28
2023-02-27T02:40:04.715Z,100456.22
2023-02-27T02:42:43.632Z,100411.81
2023-02-27T02:45:10.451Z,100452.47
2023-02-27T02:48:00.541Z,100455.06
2023-02-27T02:50:43.531Z,100326.28
2023-02-27T02:53:22.046Z,100456.06
2023-02-27T02:55:52.802Z,100363.13
2023-02-27T02:58:38.339Z,100375.03
2023-02-27T03:01:22.272Z,100407.84
2023-02-27T03:03:59.677Z,100459.19
2023-02-27T03:06:33.818Z,100467.66
2023-02-27T03:09:08.734Z,100370.50
2023-02-27T03:11:40.064Z,100457.44
2023-02-27T03:14:39.731Z,100473.81
2023-02-27T03:17:18.063Z,100367.00
2023-02-27T03:19:59.278Z,100394.84
2023-02-27T03:22:34.092Z,100462.38
2023-02-27T03:25:05.925Z,100485.66
2023-02-27T03:27:38.765Z,100363.44
2023-02-27T03:30:36.115Z,100479.25
2023-02-27T03:33:30.307Z,100394.88
2023-02-27T03:36:42.781Z,100471.47
2023-02-27T03:39:53.930Z,100306.06
2023-02-27T03:42:23.349Z,100493.16
2023-02-27T03:45:37.530Z,100445.84
2023-02-27T03:48:11.285Z,100400.78
2023-02-27T03:50:43.967Z,100496.41
2023-02-27T03:53:29.212Z,100501.84
2023-02-27T03:55:58.499Z,100213.97
2023-02-27T03:58:32.943Z,100494.03
2023-02-27T04:01:02.909Z,100322.16
2023-02-27T04:03:35.572Z,100512.09
2023-02-27T04:06:22.689Z,100443.28
2023-02-27T04:08:55.849Z,100500.47
2023-02-27T04:11:26.306Z,100509.25
2023-02-27T04:14:38.898Z,100465.47
2023-02-27T04:17:16.130Z,100513.38
2023-02-27T04:20:08.475Z,100465.34
2023-02-27T04:22:47.331Z,100513.56
2023-02-27T04:25:34.828Z,100513.38
2023-02-27T04:28:25.605Z,100450.84
2023-02-27T04:30:55.797Z,100515.81
2023-02-27T04:33:57.304Z,100369.25
2023-02-27T04:36:46.586Z,100538.16
2023-02-27T04:39:22.966Z,100444.84
2023-02-27T04:41:58.749Z,100379.19
2023-02-27T04:44:26.255Z,100426.03
2023-02-27T04:46:54.538Z,100536.34
2023-02-27T04:49:31.804Z,100532.81
2023-02-27T04:51:58.471Z,100538.75
2023-02-27T04:54:42.135Z,100480.34
2023-02-27T04:57:11.750Z,100451.94
2023-02-27T04:59:39.995Z,100537.75
2023-02-27T05:02:08.295Z,100546.06
2023-02-27T05:04:37.929Z,100486.34
2023-02-27T05:07:07.918Z,100542.50
2023-02-27T05:09:41.104Z,100547.34
2023-02-27T05:12:29.161Z,100551.41
2023-02-27T05:15:11.289Z,100562.53
2023-02-27T05:17:52.590Z,100479.97
2023-02-27T05:20:19.616Z,100446.44
2023-02-27T05:22:48.879Z,100488.03
2023-02-27T05:25:28.355Z,100522.56
2023-02-27T05:28:04.423Z,100576.13
2023-02-27T05:30:36.281Z,100576.66
2023-02-27T05:33:15.481Z,100588.88
2023-02-27T05:35:48.198Z,100559.09
2023-02-27T05:38:24.189Z,100553.56
2023-02-27T05:41:04.238Z,100483.66
2023-02-27T05:43:43.333Z,100397.63
2023-02-27T05:46:21.966Z,100593.19
2023-02-27T05:49:05.624Z,100507.72
2023-02-27T05:51:34.190Z,100522.06
2023-02-27T05:54:06.078Z,100580.66
2023-02-27T05:56:36.847Z,100478.44
2023-02-27T05:59:15.113Z,100350.31
2023-02-27T06:01:42.783Z,100254.31
2023-02-27T06:04:10.621Z,100304.91
2023-02-27T06:06:37.495Z,99939.09
2023-02-27T06:09:09.509Z,100626.19
2023-02-27T06:11:38.813Z,100638.03
2023-02-27T06:14:07.867Z,100578.16
2023-02-27T06:16:39.259Z,100616.81
2023-02-27T06:19:08.830Z,100625.19
2023-02-27T06:21:39.971Z,100569.72
2023-02-27T06:24:08.968Z,100648.50
2023-02-27T06:26:39.371Z,100657.16
2023-02-27T06:29:08.564Z,100663.50
2023-02-27T06:31:35.336Z,100587.97
2023-02-27T06:34:04.928Z,100686.38
2023-02-27T06:36:31.828Z,100613.47
2023-02-27T06:39:01.170Z,100506.22
2023-02-27T06:41:29.301Z,100690.06
2023-02-27T06:43:56.499Z,100650.06
2023-02-27T06:46:25.938Z,100533.63
2023-02-27T06:48:53.243Z,100609.22
2023-02-27T06:51:20.054Z,100654.94
2023-02-27T06:53:46.777Z,100628.75
2023-02-27T06:56:16.066Z,100598.94
2023-02-27T06:58:43.124Z,100588.81
2023-02-27T07:01:10.012Z,100719.41
2023-02-27T07:03:36.801Z,100667.25
2023-02-27T07:06:03.840Z,100582.25
2023-02-27T07:08:30.623Z,100695.09
2023-02-27T07:11:01.864Z,100670.41
2023-02-27T07:13:31.674Z,100698.19
2023-02-27T07:15:58.565Z,100576.00
2023-02-27T07:18:25.695Z,100611.06
2023-02-27T07:20:52.499Z,100637.34
2023-02-27T07:23:19.264Z,100558.91
2023-02-27T07:25:48.666Z,100728.34
2023-02-27T07:28:19.035Z,100652.75
2023-02-27T07:30:46.490Z,100733.66
2023-02-27T07:33:15.791Z,100530.78
2023-02-27T07:35:45.571Z,100737.78
2023-02-27T07:38:19.004Z,100722.41
2023-02-27T07:40:46.512Z,100739.78
2023-02-27T07:43:13.485Z,100746.09
2023-02-27T07:45:42.820Z,100522.44
2023-02-27T07:48:10.829Z,100617.94
2023-02-27T07:50:38.284Z,100694.75
2023-02-27T07:53:10.379Z,100627.59
2023-02-27T07:55:39.930Z,100756.28
2023-02-27T07:58:09.029Z,100753.66
2023-02-27T08:00:35.797Z,100619.38
2023-02-27T08:03:05.143Z,100716.22
2023-02-27T08:05:31.974Z,100760.34
2023-02-27T08:08:03.631Z,100376.78
2023-02-27T08:10:30.373Z,100704.28
2023-02-27T08:12:57.121Z,100614.06
2023-02-27T08:15:24.646Z,100571.81
2023-02-27T08:17:54.036Z,100648.75
2023-02-27T08:20:24.378Z,100767.47
2023-02-27T08:22:51.171Z,100681.94
2023-02-27T08:25:21.531Z,100716.38
2023-02-27T08:27:48.361Z,100700.38
2023-02-27T08:30:17.857Z,100680.09
2023-02-27T08:32:47.042Z,100690.59
2023-02-27T08:35:13.892Z,100664.66
2023-02-27T08:37:42.918Z,100636.44
2023-02-27T08:40:13.457Z,100658.72
2023-02-27T08:42:42.435Z,100632.22
2023-02-27T08:45:10.420Z,100808.09
2023-02-27T08:47:37.433Z,100661.50
2023-02-27T08:50:06.656Z,100662.28
2023-02-27T08:52:35.915Z,100780.47
2023-02-27T08:55:05.697Z,100721.78
2023-02-27T08:57:37.353Z,100794.16
2023-02-27T09:00:14.546Z,100825.53
2023-02-27T09:02:41.884Z,100801.53
2023-02-27T09:05:11.981Z,100695.47
2023-02-27T09:07:39.080Z,100743.63
2023-02-27T09:10:08.553Z,100780.09
2023-02-27T09:12:35.434Z,100729.03
2023-02-27T09:15:05.471Z,100744.13
2023-02-27T09:17:36.629Z,100828.25
2023-02-27T09:20:09.214Z,100811.25
2023-02-27T09:22:40.960Z,100755.00
2023-02-27T09:25:10.502Z,100801.28
2023-02-27T09:27:37.158Z,100831.19
2023-02-27T09:30:06.806Z,100687.22
2023-02-27T09:32:33.838Z,100801.31
2023-02-27T09:35:03.236Z,100784.75
2023-02-27T09:37:30.053Z,100676.09
2023-02-27T09:39:56.911Z,100825.91
2023-02-27T09:42:26.233Z,100779.81
2023-02-27T09:44:56.572Z,100706.13
2023-02-27T09:47:26.003Z,100831.72
2023-02-27T09:50:18.076Z,100826.22
2023-02-27T09:52:47.382Z,100697.06
2023-02-27T09:55:22.826Z,100620.22
2023-02-27T09:58:08.115Z,100834.81
2023-02-27T10:00:53.534Z,100836.66
2023-02-27T10:03:36.822Z,100833.59
2023-02-27T10:06:44.775Z,100807.31
2023-02-27T10:09:29.819Z,100837.97
2023-02-27T10:12:04.369Z,100799.91
2023-02-27T10:14:47.516Z,100786.63
2023-02-27T10:17:22.614Z,100844.84
2023-02-27T10:19:51.651Z,100851.06
2023-02-27T10:22:26.254Z,100841.53
2023-02-27T10:25:01.353Z,100817.81
2023-02-27T10:27:33.028Z,100710.22
2023-02-27T10:30:29.567Z,100702.16
2023-02-27T10:33:28.721Z,100753.97
2023-02-27T10:35:55.704Z,100745.94
2023-02-27T10:38:40.070Z,100833.16
2023-02-27T10:41:12.275Z,100735.44
2023-02-27T10:43:44.518Z,100840.97
2023-02-27T10:46:22.303Z,100839.34
2023-02-27T10:48:51.596Z,100831.72
2023-02-27T10:51:28.523Z,100693.72
2023-02-27T10:54:14.719Z,100839.19
2023-02-27T10:56:41.912Z,100803.81
2023-02-27T10:59:37.804Z,100840.81
2023-02-27T11:02:20.987Z,100833.41
2023-02-27T11:04:53.927Z,100706.00
2023-02-27T11:07:47.756Z,100829.94
2023-02-27T11:10:14.935Z,100839.25
2023-02-27T11:12:46.004Z,100645.69
2023-02-27T11:15:15.744Z,100839.78
2023-02-27T11:17:45.422Z,100839.25
2023-02-27T11:20:39.765Z,100842.75
2023-02-27T11:23:29.453Z,100846.63
2023-02-27T11:26:11.138Z,100769.06
2023-02-27T11:28:37.945Z,100767.41
2023-02-27T11:31:21.455Z,100722.09
2023-02-27T11:33:54.159Z,100784.34
2023-02-27T11:36:23.854Z,100811.13
2023-02-27T11:38:54.901Z,100853.09
2023-02-27T11:41:30.710Z,100777.97
2023-02-27T11:44:00.849Z,100672.56
2023-02-27T11:46:48.414Z,100658.88
2023-02-27T11:49:35.423Z,100745.28
2023-02-27T11:52:23.008Z,100854.81
2023-02-27T11:54:55.728Z,100767.41
2023-02-27T11:57:32.983Z,100678.63
2023-02-27T12:00:19.817Z,100758.44
2023-02-27T12:03:01.016Z,100833.94
2023-02-27T12:05:32.341Z,100721.16
2023-02-27T12:08:31.485Z,100833.84
2023-02-27T12:11:13.897Z,100833.47
2023-02-27T12:13:49.733Z,100838.84
2023-02-27T12:16:38.766Z,100847.88
2023-02-27T12:19:31.917Z,100836.00
2023-02-27T12:22:26.616Z,100837.22
2023-02-27T12:25:03.708Z,100836.84
2023-02-27T12:27:45.386Z,100841.88
2023-02-27T12:30:19.475Z,100782.88
2023-02-27T12:32:51.838Z,100762.50
2023-02-27T12:35:28.513Z,100758.13
2023-02-27T12:37:58.407Z,100742.22
2023-02-27T12:40:38.981Z,100793.97
2023-02-27T12:43:35.428Z,100760.66
2023-02-27T12:46:20.873Z,100845.75
2023-02-27T12:48:48.141Z,100851.38
2023-02-27T12:51:18.242Z,100844.78
2023-02-27T12:54:12.030Z,100849.78
2023-02-27T12:56:56.883Z,100852.31
2023-02-27T12:59:30.390Z,100854.97
2023-02-27T13:02:02.980Z,100857.72
2023-02-27T13:04:35.915Z,100862.91
2023-02-27T13:07:39.135Z,100862.25
2023-02-27T13:10:25.433Z,100762.84
2023-02-27T13:13:00.817Z,100730.53
2023-02-27T13:15:34.527Z,100858.78
2023-02-27T13:18:08.670Z,100836.72
2023-02-27T13:20:50.182Z,100802.66
2023-02-27T13:23:49.412Z,100874.25
2023-02-27T13:26:21.927Z,100867.38
2023-02-27T13:28:54.209Z,100762.69
2023-02-27T13:31:34.161Z,100792.75
2023-02-27T13:34:06.818Z,100871.38
2023-02-27T13:36:41.210Z,100798.59
2023-02-27T13:39:40.532Z,100869.13
2023-02-27T13:42:30.638Z,100873.78
2023-02-27T13:44:58.377Z,100868.91
2023-02-27T13:47:31.182Z,100875.22
2023-02-27T13:50:06.091Z,100713.25
2023-02-27T13:52:34.768Z,100850.56
2023-02-27T13:55:11.172Z,100913.97
2023-02-27T13:57:41.300Z,100726.59
2023-02-27T14:00:25.360Z,100772.56
2023-02-27T14:03:00.595Z,100779.41
2023-02-27T14:05:37.900Z,100817.19
2023-02-27T14:08:27.245Z,100875.31
2023-02-27T14:10:56.249Z,100875.56
2023-02-27T14:13:51.114Z,100872.38
2023-02-27T14:16:44.298Z,100871.88
2023-02-27T14:19:22.383Z,100867.84
2023-02-27T14:21:51.330Z,100867.97
2023-02-27T14:24:25.490Z,100864.50
2023-02-27T14:26:58.326Z,100889.78
2023-02-27T14:29:31.134Z,100843.31
2023-02-27T14:32:04.079Z,100865.13
2023-02-27T14:34:36.295Z,100727.75
2023-02-27T14:37:07.172Z,100872.94
2023-02-27T14:39:36.111Z,100860.56
2023-02-27T14:42:41.215Z,100867.97
2023-02-27T14:45:19.928Z,100228.66
2023-02-27T14:47:51.047Z,100793.91
2023-02-27T14:50:28.879Z,100739.31
2023-02-27T14:52:55.766Z,100838.34
2023-02-27T14:55:34.640Z,100869.59
2023-02-27T14:58:07.524Z,100878.47
2023-02-27T15:00:39.786Z,100873.66
2023-02-27T15:03:19.802Z,100738.72
2023-02-27T15:05:50.956Z,100787.53
2023-02-27T15:08:23.829Z,100885.53
2023-02-27T15:10:54.891Z,100778.19
2023-02-27T15:13:37.510Z,100894.19
2023-02-27T15:16:23.606Z,100907.22
2023-02-27T15:18:55.437Z,100906.88
2023-02-27T15:21:28.122Z,100914.03
2023-02-27T15:23:59.375Z,100922.69
2023-02-27T15:26:30.272Z,100821.28
2023-02-27T15:29:00.417Z,100776.81
2023-02-27T15:31:31.517Z,100920.72
2023-02-27T15:34:00.401Z,100865.72
2023-02-27T15:36:33.132Z,100943.81
2023-02-27T15:39:12.325Z,100946.47
2023-02-27T15:41:39.270Z,100826.88
2023-02-27T15:44:06.254Z,100856.59
2023-02-27T15:46:33.324Z,100968.59
2023-02-27T15:49:00.206Z,100950.50
2023-02-27T15:51:28.608Z,100932.34
2023-02-27T15:53:59.468Z,100893.28
2023-02-27T15:56:33.202Z,100994.81
2023-02-27T15:59:03.150Z,100894.97
2023-02-27T16:01:35.054Z,100987.22
2023-02-27T16:04:04.703Z,100984.22
2023-02-27T16:06:34.276Z,100963.41
2023-02-27T16:09:20.877Z,100991.84
2023-02-27T16:11:47.662Z,101019.50
2023-02-27T16:14:37.070Z,101001.34
2023-02-27T16:17:06.059Z,100880.88
2023-02-27T16:19:32.808Z,100908.66
2023-02-27T16:22:11.780Z,100940.72
2023-02-27T16:24:38.655Z,100920.50
2023-02-27T16:27:05.787Z,100996.78
2023-02-27T16:29:40.539Z,101025.63
2023-02-27T16:32:23.983Z,101031.81
2023-02-27T16:34:52.148Z,100996.50
2023-02-27T16:37:23.951Z,101033.84
2023-02-27T16:39:52.588Z,101037.22
2023-02-27T16:42:20.879Z,100972.84
2023-02-27T16:44:47.711Z,101076.78
2023-02-27T16:47:16.637Z,100933.19
2023-02-27T16:49:45.602Z,101073.78
2023-02-27T16:52:12.434Z,100913.53
2023-02-27T16:54:39.192Z,100988.22
2023-02-27T16:57:09.208Z,101021.59
2023-02-27T16:59:39.162Z,101029.22
2023-02-27T17:02:10.918Z,101086.53
2023-02-27T17:04:37.799Z,100987.41
2023-02-27T17:07:09.863Z,100929.84
2023-02-27T17:09:36.804Z,100950.66
2023-02-27T17:12:03.616Z,100748.84
2023-02-27T17:14:30.455Z,101046.25
2023-02-27T17:16:59.702Z,101063.56
2023-02-27T17:19:29.161Z,101072.09
2023-02-27T17:21:55.938Z,101026.47
2023-02-27T17:24:22.780Z,101099.91
2023-02-27T17:26:52.623Z,101013.00
2023-02-27T17:29:19.549Z,101104.91
2023-02-27T17:31:48.904Z,101069.81
2023-02-27T17:34:18.654Z,101031.22
2023-02-27T17:36:53.324Z,101116.63
2023-02-27T17:39:22.427Z,100953.31
2023-02-27T17:41:53.028Z,101111.63
2023-02-27T17:44:19.974Z,101063.41
2023-02-27T17:46:46.700Z,101061.44
2023-02-27T17:49:13.572Z,101138.06
2023-02-27T17:51:47.460Z,101102.63
2023-02-27T17:54:17.240Z,101082.63
2023-02-27T17:56:43.960Z,101151.94
2023-02-27T17:59:13.186Z,101047.13
2023-02-27T18:01:42.199Z,101139.44
2023-02-27T18:04:11.357Z,101040.56
2023-02-27T18:06:38.798Z,101065.59
2023-02-27T18:09:08.543Z,101146.41
2023-02-27T18:11:37.487Z,101152.16
2023-02-27T18:14:04.982Z,101142.81
2023-02-27T18:16:34.074Z,101164.25
2023-02-27T18:19:09.925Z,100924.69
2023-02-27T18:21:37.038Z,100992.84
2023-02-27T18:24:06.665Z,101130.34
2023-02-27T18:26:33.381Z,101182.59
2023-02-27T18:29:05.967Z,101061.06
2023-02-27T18:31:38.627Z,101183.44
2023-02-27T18:34:06.176Z,101195.53
2023-02-27T18:36:35.631Z,101026.22
2023-02-27T18:39:06.159Z,101108.69
2023-02-27T18:41:33.101Z,101135.16
2023-02-27T18:44:00.082Z,101024.50
2023-02-27T18:46:28.545Z,101069.56
2023-02-27T18:49:00.926Z,101071.94
2023-02-27T18:51:27.887Z,101022.63
2023-02-27T18:53:55.133Z,101197.03
2023-02-27T18:56:26.146Z,101203.31
2023-02-27T18:58:53.566Z,101196.25
2023-02-27T19:01:27.461Z,101206.00
2023-02-27T19:04:00.374Z,101116.22
2023-02-27T19:06:28.416Z,101187.53
2023-02-27T19:08:55.426Z,101170.09
2023-02-27T19:11:29.697Z,101218.94
2023-02-27T19:14:05.086Z,101201.91
2023-02-27T19:16:32.575Z,101200.81
2023-02-27T19:19:01.358Z,101171.78
2023-02-27T19:21:28.717Z,100881.81
2023-02-27T19:23:55.516Z,101225.69
2023-02-27T19:26:24.290Z,100966.03
2023-02-27T19:28:53.685Z,101250.81
2023-02-27T19:31:24.155Z,101231.16
2023-02-27T19:33:53.632Z,101006.06
2023-02-27T19:36:22.096Z,101240.72
2023-02-27T19:38:49.227Z,101181.50
2023-02-27T19:41:19.331Z,101270.53
2023-02-27T19:43:50.338Z,101231.13
2023-02-27T19:46:24.325Z,101300.75
2023-02-27T19:48:54.891Z,101107.00
2023-02-27T19:51:26.577Z,101278.53
2023-02-27T19:53:53.917Z,101209.75
2023-02-27T19:56:23.045Z,101279.22
2023-02-27T19:58:50.701Z,101242.41
2023-02-27T20:01:28.414Z,101257.47
2023-02-27T20:03:56.191Z,101251.38
2023-02-27T20:06:28.141Z,101145.44
2023-02-27T20:08:55.797Z,101302.63
2023-02-27T20:11:22.668Z,101314.81
2023-02-27T20:13:50.349Z,101315.69
2023-02-27T20:16:19.294Z,101339.06
2023-02-27T20:18:46.146Z,101327.31
2023-02-27T20:21:16.007Z,101299.44
2023-02-27T20:23:44.392Z,101341.50
2023-02-27T20:26:20.423Z,101336.84
2023-02-27T20:28:48.369Z,101291.59
2023-02-27T20:31:21.218Z,101205.28
2023-02-27T20:33:51.483Z,101325.88
2023-02-27T20:36:18.357Z,101341.13
2023-02-27T20:38:48.645Z,100998.38
2023-02-27T20:41:18.191Z,101330.19
2023-02-27T20:43:45.033Z,101342.28
2023-02-27T20:46:17.328Z,101340.00
2023-02-27T20:48:45.395Z,101348.47
2023-02-27T20:51:23.975Z,101357.31
2023-02-27T20:53:56.071Z,101363.59
2023-02-27T20:56:26.910Z,101355.97
2023-02-27T20:58:56.298Z,101358.59
2023-02-27T21:01:24.525Z,101368.84
2023-02-27T21:03:56.135Z,101263.69
2023-02-27T21:06:24.217Z,101357.72
2023-02-27T21:08:54.538Z,101295.16
2023-02-27T21:11:28.337Z,101369.91
2023-02-27T21:13:57.096Z,101372.00
2023-02-27T21:16:25.798Z,101373.13
2023-02-27T21:18:56.800Z,101132.72
2023-02-27T21:25:24.464Z,101148.72
2023-02-27T21:27:51.667Z,101199.03
2023-02-27T21:30:21.222Z,101343.00
2023-02-27T21:32:47.806Z,101387.69
2023-02-27T21:35:14.902Z,101353.19
2023-02-27T21:37:46.833Z,101240.38
2023-02-27T21:40:16.243Z,101221.50
2023-02-27T21:42:45.394Z,101221.53
2023-02-27T21:45:17.042Z,101399.25
2023-02-27T21:47:49.632Z,101223.00
2023-02-27T21:50:18.403Z,101113.66
2023-02-27T21:52:45.112Z,101379.47
2023-02-27T21:55:14.352Z,101069.97
2023-02-27T21:57:41.074Z,101386.59
2023-02-27T22:00:16.159Z,101342.22
2023-02-27T22:02:42.912Z,101395.03
2023-02-27T22:05:12.016Z,101279.19
2023-02-27T22:07:38.803Z,101202.19
2023-02-27T22:10:05.944Z,101335.34
2023-02-27T22:12:32.682Z,101312.09
2023-02-27T22:15:09.624Z,101124.38
2023-02-27T22:17:36.458Z,101231.81
2023-02-27T22:20:07.322Z,101031.78
2023-02-27T22:22:34.160Z,101057.47
2023-02-27T22:25:03.520Z,101253.53
2023-02-27T22:27:30.319Z,101022.31
2023-02-27T22:29:57.177Z,101213.78
2023-02-27T22:32:24.086Z,101229.19
2023-02-27T22:34:50.822Z,101301.03
2023-02-27T22:37:19.613Z,101184.28
2023-02-27T22:39:49.084Z,101157.88
2023-02-27T22:42:15.868Z,101292.44
2023-02-27T22:44:44.890Z,101366.63
2023-02-27T22:47:14.358Z,101333.03
2023-02-27T22:49:43.376Z,101173.47
2023-02-27T22:52:13.503Z,101257.53
2023-02-27T22:54:40.275Z,101373.78
2023-02-27T22:57:07.124Z,101374.38
2023-02-27T22:59:33.820Z,101202.84
2023-02-27T23:02:02.767Z,101253.03
2023-02-27T23:04:29.586Z,101273.84
2023-02-27T23:06:56.468Z,101190.66
2023-02-27T23:09:28.966Z,101244.50
2023-02-27T23:11:58.888Z,101152.56
2023-02-27T23:14:25.650Z,101118.59
2023-02-27T23:16:52.418Z,101118.09
2023-02-27T23:19:20.455Z,101357.09
2023-02-27T23:21:47.506Z,101325.63
2023-02-27T23:24:18.710Z,101395.91
2023-02-27T23:26:48.689Z,101382.00
2023-02-27T23:29:18.689Z,101347.34
2023-02-27T23:31:45.618Z,101358.78
2023-02-27T23:34:12.859Z,101236.59
2023-02-27T23:36:42.643Z,101380.00
2023-02-27T23:39:11.689Z,101261.41
2023-02-27T23:41:38.490Z,101333.09
2023-02-27T23:44:07.444Z,101313.44
2023-02-27T23:46:37.303Z,101234.53
2023-02-27T23:49:07.007Z,101219.69
2023-02-27T23:51:38.596Z,101251.13
2023-02-27T23:54:05.534Z,101396.75
2023-02-27T23:56:34.412Z,101268.91
2023-02-27T23:59:05.389Z,101250.34
